Sydney Mines, Canada
Current Conditions -  °F | °C
As of 7:17 AM on Saturday 25 Oct 2014 (Local Time) from CYQY Reporting Station
Light Rain Light Rain  
Wind Chill: 54°   Ceiling: 300
Heat Index: 54°   Visibility: 0.5mi
Dew Point: 54°   Wind: 6mph
Humidity: 100%   Direction: 340°NNW
Pressure: 29.31"   Gusts: NA
Location:  46.23°N, 60.22°W
Report Text: CYQY 251017Z 34005KT 1/2SM R07/5000VP6000FT/D -RA FG VV003 12/12 A2931 RMK FG8 SLP925 DENSITY ALT 600FT
Loading
Personal Weather Stations






























Interactive Weather Map
Tropical Storm Tracking
New forecast layout! Learn more

10-Day Weather Forecast

Advertisements
Track Severe Weather on mobile